Time;durP1;ratioP1;P1;durP2;ratioP2;P2;SDS_P1;SDS_P2;PMS_P1;PMS_P2;Temp;Humidity;BMP_temperature;BMP_pressure;BME280_temperature;BME280_humidity;BME280_pressure;Samples;Min_cycle;Max_cycle;Signal;HPM_P1;HPM_P2
2022/08/16 00:02:56;;;;;;;1.23;0.73;;;23.80;99.90;;;;;;20988343;28;20641;-80
2022/08/16 00:12:58;;;;;;;1.50;0.80;;;;;;;;;;20987980;28;20285;-80
2022/08/16 00:22:59;;;;;;;1.30;0.90;;;;;;;;;;20986991;28;20230;-79
2022/08/16 00:33:01;;;;;;;1.30;0.82;;;;;;;;;;20986923;28;20270;-81
2022/08/16 00:43:05;;;;;;;1.67;0.98;;;;;;;;;;21010602;28;20231;-81
2022/08/16 00:53:08;;;;;;;1.52;1.10;;;;;;;;;;20968105;28;20252;-81
2022/08/16 01:03:12;;;;;;;1.63;1.15;;;22.40;99.90;;;;;;20984428;28;20221;-80
2022/08/16 01:13:17;;;;;;;1.27;0.93;;;22.40;99.90;;;;;;20999361;28;20223;-80
2022/08/16 01:23:34;;;;;;;1.25;0.90;;;22.20;99.90;;;;;;20950491;28;20681;-80
2022/08/16 01:33:36;;;;;;;1.40;1.10;;;;;;;;;;20983133;28;20206;-79
2022/08/16 01:43:39;;;;;;;1.35;0.80;;;;;;;;;;20947810;28;20240;-80
2022/08/16 01:53:41;;;;;;;2.10;1.10;;;;;;;;;;20980395;28;20213;-79
2022/08/16 02:03:53;;;;;;;2.13;1.10;;;;;;;;;;20964718;28;20227;-82
2022/08/16 02:13:54;;;;;;;1.52;1.02;;;;;;;;;;20978235;28;20296;-80
2022/08/16 02:23:56;;;;;;;4.15;1.42;;;;;;;;;;20995594;28;20259;-80
2022/08/16 02:33:58;;;;;;;2.10;1.27;;;;;;;;;;21004863;28;20226;-79
2022/08/16 02:44:10;;;;;;;2.92;1.50;;;;;;;;;;20966820;28;20262;-80
2022/08/16 02:54:13;;;;;;;1.70;1.20;;;;;;;;;;21075756;28;20229;-79
2022/08/16 03:04:16;;;;;;;2.63;1.13;;;;;;;;;;21076764;28;20223;-79
2022/08/16 03:14:18;;;;;;;1.80;1.30;;;;;;;;;;21042956;28;20231;-79
2022/08/16 03:24:21;;;;;;;1.92;1.30;;;;;;;;;;21057694;28;20233;-80
2022/08/16 03:34:23;;;;;;;1.40;1.02;;;;;;;;;;21054577;28;20207;-79
2022/08/16 03:44:25;;;;;;;1.70;0.95;;;;;;;;;;21056765;28;20261;-80
2022/08/16 03:54:28;;;;;;;1.73;1.27;;;;;;;;;;21072864;28;20782;-78
2022/08/16 04:04:30;;;;;;;2.78;1.70;;;21.10;99.90;;;;;;21072528;28;20230;-79
2022/08/16 04:14:32;;;;;;;2.47;1.53;;;;;;;;;;21055045;28;20217;-79
2022/08/16 04:24:34;;;;;;;1.53;1.10;;;;;;;;;;21071098;28;20219;-79
2022/08/16 04:34:38;;;;;;;2.30;1.50;;;;;;;;;;21087061;28;20300;-80
2022/08/16 04:44:40;;;;;;;2.30;1.40;;;;;;;;;;21052173;28;20719;-79
2022/08/16 04:54:43;;;;;;;1.77;1.20;;;;;;;;;;21018278;28;20275;-80
2022/08/16 05:04:44;;;;;;;2.00;1.20;;;;;;;;;;21012750;28;20569;-79
2022/08/16 05:14:46;;;;;;;2.50;1.60;;;;;;;;;;21026674;28;20259;-79
2022/08/16 05:24:52;;;;;;;2.00;1.40;;;;;;;;;;21065229;28;20230;-80
2022/08/16 05:34:54;;;;;;;2.10;1.43;;;;;;;;;;21066682;28;20578;-79
2022/08/16 05:44:56;;;;;;;1.63;1.20;;;;;;;;;;21048019;28;20269;-78
2022/08/16 05:54:59;;;;;;;2.10;1.40;;;;;;;;;;21063549;28;20214;-79
2022/08/16 06:05:01;;;;;;;2.07;1.60;;;21.20;99.90;;;;;;21065479;28;20274;-80
2022/08/16 06:15:05;;;;;;;2.73;2.00;;;;;;;;;;21012972;28;20226;-80
2022/08/16 06:25:07;;;;;;;2.75;1.83;;;;;;;;;;21061109;28;20570;-79
2022/08/16 06:35:10;;;;;;;3.00;1.87;;;;;;;;;;21061118;28;20251;-79
2022/08/16 06:45:20;;;;;;;2.83;1.97;;;;;;;;;;21060776;28;20644;-80
2022/08/16 06:55:33;;;;;;;4.82;1.77;;;;;;;;;;21062090;28;20588;-79
2022/08/16 07:05:36;;;;;;;3.53;2.37;;;;;;;;;;21041961;28;20600;-81
2022/08/16 07:15:58;;;;;;;3.00;2.13;;;21.70;99.90;;;;;;21058785;28;20253;-79
2022/08/16 07:26:04;;;;;;;4.13;2.13;;;21.60;99.90;;;;;;21012743;28;20242;-79
2022/08/16 07:36:07;;;;;;;4.20;2.30;;;;;;;;;;21061406;28;20219;-80
2022/08/16 07:46:23;;;;;;;2.65;1.85;;;;;;;;;;21080892;28;20249;-78
2022/08/16 07:56:27;;;;;;;3.75;1.60;;;;;;;;;;21084812;28;20236;-79
2022/08/16 08:06:31;;;;;;;2.50;1.98;;;22.70;99.90;;;;;;21067361;28;20582;-80
2022/08/16 08:16:38;;;;;;;2.88;1.88;;;;;;;;;;21077361;28;20286;-79
2022/08/16 08:26:41;;;;;;;2.17;1.60;;;;;;;;;;21085040;28;20199;-80
2022/08/16 08:36:43;;;;;;;2.35;1.95;;;;;;;;;;21102264;28;20243;-80
2022/08/16 08:47:02;;;;;;;4.53;1.90;;;23.50;99.90;;;;;;21070451;28;20677;-80
2022/08/16 08:57:05;;;;;;;4.20;1.77;;;;;;;;;;21089263;28;20270;-80
2022/08/16 09:07:11;;;;;;;2.15;1.73;;;;;;;;;;21077534;28;20287;-80
2022/08/16 09:17:14;;;;;;;3.58;1.70;;;;;;;;;;21069350;28;20212;-79
2022/08/16 09:27:16;;;;;;;2.80;1.63;;;;;;;;;;21049659;28;20257;-80
2022/08/16 09:37:18;;;;;;;3.67;1.52;;;;;;;;;;20994452;28;20228;-80
2022/08/16 09:47:21;;;;;;;2.55;1.73;;;;;;;;;;20999949;28;20222;-80
2022/08/16 09:57:23;;;;;;;2.17;1.40;;;;;;;;;;20980728;28;20223;-79
2022/08/16 10:07:28;;;;;;;2.00;1.60;;;;;;;;;;21002881;28;20219;-81
2022/08/16 10:17:30;;;;;;;1.45;1.20;;;;;;;;;;21024952;28;20283;-82
2022/08/16 10:27:34;;;;;;;1.77;1.52;;;24.30;99.90;;;;;;20979121;28;20216;-81
2022/08/16 10:37:37;;;;;;;2.08;1.40;;;;;;;;;;20996431;28;20222;-79
2022/08/16 10:47:39;;;;;;;1.70;1.00;;;;;;;;;;20994277;28;20281;-81
2022/08/16 10:57:41;;;;;;;2.28;1.40;;;;;;;;;;21002197;28;20227;-81
2022/08/16 11:07:45;;;;;;;2.28;1.23;;;;;;;;;;20993779;28;20274;-80
2022/08/16 11:17:47;;;;;;;2.40;1.00;;;26.10;98.70;;;;;;20991234;28;20222;-82
2022/08/16 11:27:49;;;;;;;1.92;1.13;;;;;;;;;;21001116;28;20250;-80
2022/08/16 11:38:19;;;;;;;2.33;1.30;;;27.40;93.80;;;;;;20989843;28;20228;-81
2022/08/16 11:48:23;;;;;;;2.47;1.20;;;;;;;;;;20988107;28;20223;-80
2022/08/16 11:58:26;;;;;;;2.13;0.93;;;;;;;;;;21020687;28;20764;-79
2022/08/16 12:08:28;;;;;;;1.52;1.00;;;;;;;;;;21086698;28;20223;-81
2022/08/16 12:18:30;;;;;;;1.33;1.05;;;;;;;;;;21070867;28;20219;-81
2022/08/16 12:28:31;;;;;;;1.73;1.13;;;;;;;;;;21036713;28;20216;-83
2022/08/16 12:38:33;;;;;;;1.90;1.20;;;;;;;;;;21068130;28;20215;-82
2022/08/16 12:58:56;;;;;;;1.40;1.17;;;28.10;94.90;;;;;;21083068;28;20253;-82
2022/08/16 13:09:01;;;;;;;2.50;1.10;;;;;;;;;;21049723;28;20254;-82
2022/08/16 13:19:03;;;;;;;2.78;1.00;;;;;;;;;;21031271;28;20223;-80
2022/08/16 13:29:04;;;;;;;1.73;1.00;;;;;;;;;;21048285;28;20663;-80
2022/08/16 13:39:06;;;;;;;1.77;0.93;;;;;;;;;;21078815;28;20215;-82
2022/08/16 13:49:08;;;;;;;2.05;1.17;;;;;;;;;;21091977;28;20543;-81
2022/08/16 13:59:12;;;;;;;1.23;0.90;;;28.30;92.10;;;;;;21079260;28;20580;-80
2022/08/16 14:09:16;;;;;;;1.65;0.85;;;;;;;;;;21061079;28;20207;-81
2022/08/16 14:19:18;;;;;;;0.80;0.80;;;;;;;;;;21042019;28;20224;-81
2022/08/16 14:29:20;;;;;;;1.13;0.80;;;;;;;;;;21043942;28;20323;-81
2022/08/16 14:39:22;;;;;;;1.10;0.68;;;;;;;;;;21074804;28;20236;-81
2022/08/16 14:49:24;;;;;;;1.20;0.77;;;;;;;;;;21026074;28;20281;-80
2022/08/16 14:59:26;;;;;;;1.58;0.80;;;;;;;;;;21041654;28;20239;-82
2022/08/16 15:09:28;;;;;;;1.20;0.70;;;;;;;;;;21072927;28;20199;-80
2022/08/16 15:19:30;;;;;;;0.90;0.80;;;;;;;;;;21056213;28;20709;-82
2022/08/16 15:29:31;;;;;;;1.63;0.82;;;;;;;;;;21068460;28;20249;-81
2022/08/16 15:39:34;;;;;;;1.17;0.90;;;;;;;;;;21091671;28;20235;-80
2022/08/16 15:49:37;;;;;;;1.77;0.95;;;29.60;87.10;;;;;;21073153;28;20250;-80
2022/08/16 15:59:43;;;;;;;1.40;0.75;;;29.70;82.10;;;;;;21072294;28;20685;-80
2022/08/16 16:09:45;;;;;;;0.82;0.60;;;;;;;;;;21087522;28;20220;-81
2022/08/16 16:19:48;;;;;;;1.48;0.80;;;;;;;;;;21086551;28;20224;-81
2022/08/16 16:29:49;;;;;;;0.93;0.60;;;;;;;;;;21081473;28;20222;-82
2022/08/16 16:39:51;;;;;;;1.63;0.88;;;;;;;;;;21087212;28;20240;-81
2022/08/16 16:49:53;;;;;;;0.93;0.77;;;;;;;;;;21067627;28;20689;-80
2022/08/16 16:59:56;;;;;;;0.85;0.60;;;;;;;;;;21050065;28;20257;-81
2022/08/16 17:09:58;;;;;;;1.48;0.75;;;28.50;87.00;;;;;;21067314;28;20249;-81
2022/08/16 17:20:00;;;;;;;1.42;0.88;;;;;;;;;;21048099;28;20227;-81
2022/08/16 17:30:09;;;;;;;1.48;0.88;;;;;;;;;;21063992;28;20357;-80
2022/08/16 17:40:12;;;;;;;1.00;0.60;;;;;;;;;;21062826;28;20218;-82
2022/08/16 17:50:15;;;;;;;2.85;0.90;;;;;;;;;;21063553;28;20577;-81
2022/08/16 18:00:17;;;;;;;0.80;0.70;;;;;;;;;;21043663;28;20719;-81
2022/08/16 18:10:20;;;;;;;1.60;0.85;;;28.60;90.20;;;;;;21018594;28;20274;-81
2022/08/16 18:30:44;;;;;;;1.48;1.02;;;;;;;;;;21021671;28;20219;-80
2022/08/16 18:40:47;;;;;;;2.30;1.23;;;;;;;;;;21020162;28;20225;-80
2022/08/16 18:50:49;;;;;;;2.47;0.85;;;;;;;;;;21051127;28;20576;-81
2022/08/16 19:00:51;;;;;;;1.42;0.95;;;;;;;;;;21005163;28;20284;-81
2022/08/16 19:10:56;;;;;;;1.95;1.13;;;;;;;;;;21015450;28;20219;-80
2022/08/16 19:20:58;;;;;;;1.25;0.90;;;;;;;;;;21122408;28;20287;-81
2022/08/16 19:31:00;;;;;;;1.83;1.00;;;;;;;;;;21025619;28;20283;-81
2022/08/16 19:41:02;;;;;;;2.15;1.40;;;;;;;;;;21091914;28;20588;-80
2022/08/16 19:51:03;;;;;;;2.53;1.50;;;;;;;;;;21037884;28;20757;-81
2022/08/16 20:01:05;;;;;;;2.88;1.10;;;;;;;;;;21039486;28;20256;-81
2022/08/16 20:11:07;;;;;;;1.42;1.00;;;;;;;;;;21063457;28;20601;-80
2022/08/16 20:21:09;;;;;;;4.50;1.10;;;;;;;;;;21063131;28;20227;-80
2022/08/16 20:31:11;;;;;;;1.90;1.17;;;25.60;97.90;;;;;;21079744;28;20219;-80
2022/08/16 20:41:13;;;;;;;2.15;1.08;;;;;;;;;;21046796;28;20231;-80
2022/08/16 20:51:14;;;;;;;2.85;1.30;;;;;;;;;;20989177;28;20230;-80
2022/08/16 21:01:17;;;;;;;2.17;1.02;;;;;;;;;;20984866;28;20222;-81
2022/08/16 21:11:20;;;;;;;1.88;1.08;;;;;;;;;;21001090;28;20223;-82
2022/08/16 21:21:22;;;;;;;2.13;1.30;;;;;;;;;;20983096;28;20813;-82
2022/08/16 21:31:24;;;;;;;2.88;1.33;;;;;;;;;;21003527;28;20247;-84
2022/08/16 21:41:26;;;;;;;1.73;1.40;;;;;;;;;;21002926;28;20232;-81
2022/08/16 21:51:27;;;;;;;2.42;1.50;;;;;;;;;;21003418;28;20216;-82
2022/08/16 22:01:29;;;;;;;2.13;1.48;;;;;;;;;;20997311;28;20300;-82
2022/08/16 22:11:31;;;;;;;1.67;1.35;;;;;;;;;;20992513;28;20225;-81
2022/08/16 22:21:37;;;;;;;1.85;1.20;;;;;;;;;;20979992;28;20218;-81
2022/08/16 22:31:39;;;;;;;1.80;1.40;;;;;;;;;;20999244;28;20760;-82
2022/08/16 22:41:44;;;;;;;2.70;1.60;;;24.50;99.90;;;;;;20974856;28;20300;-81
2022/08/16 22:51:47;;;;;;;1.67;1.40;;;;;;;;;;21059059;28;20210;-83
2022/08/16 23:01:49;;;;;;;2.33;1.33;;;;;;;;;;21044537;28;20222;-82
2022/08/16 23:11:51;;;;;;;2.13;1.58;;;24.40;99.90;;;;;;21043333;28;20228;-82
2022/08/16 23:21:53;;;;;;;1.88;1.33;;;;;;;;;;21057768;28;20228;-82
2022/08/16 23:32:09;;;;;;;1.90;1.38;;;;;;;;;;21041335;28;20219;-81
2022/08/16 23:42:14;;;;;;;2.65;1.40;;;;;;;;;;21041111;28;20210;-82
2022/08/16 23:52:16;;;;;;;2.22;1.50;;;;;;;;;;21054506;28;20220;-82
